Hauptseite
METAR-TAF:

METAR-TAF

Flughäfen :

Hagåtña, Guam, Vereinigte Staaten

Flughafen Antonio B. Won Pat

Breite: 13-29N, Länge: 144-48E, Höhe: 91 m

Beobachtung

Neuester Wetterbericht von vor 44 Minuten, um 01:54 UTC
Wind 11 kt aus Süd
Temperatur 31°C
Luftfeuchtigkeit 75%
Luftdruck 1010 hPa
Sichtweite: 16.1 km
Himmel klar

METAR: PGUM 280154Z 17011KT 10SM CLR 31/26 A2982 RMK AO2 SLP088 T03110261

Zeit: 12:38 (02:38 UTC)

Prognose

Neuester Wetterbericht von vor 3 Stunden und 16 Minuten, um 23:22 UTC
Gültige Prognose vom 28 um 00 UTC bis 29 um 06 UTC
Wind 7 kt aus Süd/Südwest
Sichtweite: 10 km
Leicht bewölkt in der Höhe von 2000 ft
Leicht bewölkt in der Höhe von 5000 ft
Aufgelockert bewölkt in der Höhe von 12000 ft
Schauer in der Nähe

TAF: PGUM 272322Z 2800/2906 21007KT P6SM VCSH FEW020 FEW050 SCT120

Wetterbeobachtungen und Prognosen von mehr als 4000 Flughäfen (METAR und TAF Bericht).

Die verfügbaren Stationen werden durch gelbe und rote Markierungen auf der Karte dargestellt.

Führen Sie die Maus auf sie, um den Namen der Station zu sehen.

Darauf klicken, um die Beobachtung von Wetterbeobachtungen und Prognosen zu sehen.

Um die Karte zu ändern : klicken Sie auf den grünen Tasten mit einem schwarzen Kreuz Zum Vergrößern, auf den grünen Button mit einem Gedankenstrich zu verkleinern, oder auf die grünen Pfeile für benachbarte Karten.


METAR-TAF: